Flight Track Log - Related Links

Times and Time Zones

All times are in EST time to prevent confusion due to time zone crossing. See the AAY860 flight status page for this flight to view local times or setup timezone preferences in your user account.

Time Position Orientation Groundspeed Altitude Reporting Facility
EST Latitude Longitude Course Direction KTS MPH feet Rate Location/Type
Fri 01:20:58 PM 28.0225 -82.7703 North 289 333 11,100  Level Jacksonville Center
Fri 01:21:58 PM 28.1247 -82.7536 North 335 386 13,100 2,167 Climbing Jacksonville Center
Fri 01:23:00 PM 28.2377 -82.8009 350° North  Level FlightAware Approximate
Fri 01:23:58 PM 28.3397 -82.7533 350° North 372 428 17,600  Level Jacksonville Center
Fri 01:24:58 PM 28.4483 -82.7792 348° North 387 445 19,300 1,850 Climbing Jacksonville Center
Fri 01:25:58 PM 28.5589 -82.8050 348° North 399 459 21,300 1,800 Climbing Jacksonville Center
Fri 01:26:58 PM 28.6694 -82.8406 344° North 404 465 22,900 1,600 Climbing Jacksonville Center
Fri 01:27:58 PM 28.7906 -82.8878 341° North 410 472 24,500 1,500 Climbing Jacksonville Center
Fri 01:28:58 PM 28.9053 -82.9306 342° North 421 484 25,900 1,350 Climbing Jacksonville Center
Fri 01:29:58 PM 29.0244 -82.9781 341° North 434 499 27,200 1,250 Climbing Jacksonville Center
Fri 01:30:58 PM 29.1411 -83.0233 341° North 440 506 28,400 1,100 Climbing Jacksonville Center
Fri 01:31:58 PM 29.2642 -83.0686 342° North 445 512 29,400 950 Climbing Jacksonville Center
Fri 01:32:58 PM 29.3875 -83.1167 341° North 455 524 30,300 1,200 Climbing Jacksonville Center
Fri 01:33:58 PM 29.5022 -83.1647 340° North 474 545 31,800 1,350 Climbing Jacksonville Center
Fri 01:34:58 PM 29.6231 -83.2081 343° North 474 545 33,000 1,100 Climbing Jacksonville Center
Fri 01:35:58 PM 29.7525 -83.2633 340° North 463 533 34,000 900 Climbing Jacksonville Center
Fri 01:36:58 PM 29.8714 -83.3069 342° North 458 527 34,800 800 Climbing Jacksonville Center
Fri 01:37:58 PM 29.9922 -83.3531 342° North 452 520 35,600 600 Climbing Jacksonville Center
Fri 01:38:58 PM 30.1111 -83.3992 341° North 447 514 36,000 200 Climbing Jacksonville Center
Fri 01:39:58 PM 30.2319 -83.4431 343° North 447 514 36,000  Level Jacksonville Center
Fri 01:40:58 PM 30.3486 -83.4894 341° North 442 509 36,000  Level Jacksonville Center
Fri 01:41:58 PM 30.4653 -83.5361 341° North 442 509 36,000 50 Level Jacksonville Center
Fri 01:42:58 PM 30.5653 -83.5778 340° North 442 509 36,100 50 Climbing Jacksonville Center
Fri 01:43:58 PM 30.6842 -83.6219 342° North 437 503 36,100  Level Jacksonville Center
Fri 01:44:58 PM 30.8008 -83.6689 341° North 437 503 36,100  Level Jacksonville Center
Fri 01:45:58 PM 30.9153 -83.7158 341° North 437 503 36,100  Level Jacksonville Center
Fri 01:46:58 PM 31.0339 -83.7631 341° North 437 503 36,100  Level Jacksonville Center
Fri 01:47:58 PM 31.1506 -83.8103 341° North 437 503 36,100  Level Jacksonville Center
Fri 01:48:58 PM 31.2672 -83.8575 341° North 442 509 36,100  Level Jacksonville Center
Fri 01:51:27 PM 31.5503 -83.9683 342° North 448 516 36,100  Level Atlanta Center
Fri 01:52:27 PM 31.6861 -83.9997 349° North 443 510 36,100 -50 Level Atlanta Center
Fri 01:53:27 PM 31.8092 -84.0242 350° North 443 510 36,000 -50 Descending Atlanta Center
Fri 01:54:27 PM 31.9325 -84.0511 349° North 449 517 36,000 50 Level Atlanta Center
Fri 01:55:27 PM 32.0556 -84.0781 349° North 449 517 36,100 50 Climbing Atlanta Center
Fri 01:56:27 PM 32.1786 -84.1050 350° North 449 517 36,100  Level Atlanta Center
Fri 01:57:27 PM 32.3039 -84.1175 355° North 449 517 36,100  Level Atlanta Center
Fri 01:58:27 PM 32.4333 -84.1103 North 449 517 36,100 -50 Level Atlanta Center
Fri 01:59:27 PM 32.5606 -84.1028 North 449 517 36,000  Descending Atlanta Center
Fri 02:00:27 PM 32.6881 -84.0931 North 454 522 36,100 50 Climbing Atlanta Center
Fri 02:01:27 PM 32.8194 -84.0858 North 460 529 36,100  Level Atlanta Center
Fri 02:02:27 PM 32.9467 -84.0783 North 460 529 36,100  Level Atlanta Center
Fri 02:03:27 PM 33.0844 -84.0736 North 455 524 36,100  Level Atlanta Center
Fri 02:04:27 PM 33.2119 -84.0661 North 461 531 36,100  Level Atlanta Center
Fri 02:05:27 PM 33.3414 -84.0561 North 456 525 36,100  Level Atlanta Center
Fri 02:06:27 PM 33.4686 -84.0489 North 461 531 36,100 -50 Level Atlanta Center
Fri 02:07:27 PM 33.5814 -84.0414 North 456 525 36,000 -50 Descending Atlanta Center
Fri 02:08:27 PM 33.7108 -84.0314 North 461 531 36,000 50 Level Atlanta Center
Fri 02:09:27 PM 33.8381 -84.0239 North 461 531 36,100 50 Climbing Atlanta Center
Fri 02:10:27 PM 33.9675 -84.0136 North 461 531 36,100  Level Atlanta Center
Fri 02:11:27 PM 34.0947 -84.0061 North 461 531 36,100  Level Atlanta Center
Fri 02:12:27 PM 34.2242 -83.9986 North 460 529 36,100  Level Atlanta Center
Fri 02:13:27 PM 34.3514 -83.9911 North 460 529 36,100  Level Atlanta Center
Fri 02:14:27 PM 34.4831 -83.9808 North 460 529 36,100  Level Atlanta Center
Fri 02:15:27 PM 34.6061 -83.9833 359° North 460 529 36,100 -50 Level Atlanta Center
Fri 02:16:27 PM 34.7272 -84.0033 352° North 453 521 36,000  Descending Atlanta Center
Fri 02:17:27 PM 34.8586 -84.0236 353° North 442 509 36,100  Climbing Atlanta Center
Fri 02:18:27 PM 34.9817 -84.0414 353° North 442 509 36,000  Descending Atlanta Center
Fri 02:19:27 PM 35.1028 -84.0564 354° North 442 509 36,100 50 Climbing Atlanta Center
Fri 02:20:27 PM 35.2258 -84.0744 353° North 442 509 36,100 -50 Level Atlanta Center
Fri 02:21:27 PM 35.3447 -84.0922 353° North 442 509 36,000 -50 Descending Atlanta Center
Fri 02:22:27 PM 35.4575 -84.1075 354° North 442 509 36,000 -350 Level Atlanta Center
Fri 02:23:27 PM 35.5783 -84.1231 354° North 442 509 35,300 -600 Descending Atlanta Center
Fri 02:24:27 PM 35.7036 -84.1411 353° North 447 514 34,800 -1,500 Descending Atlanta Center
Fri 02:25:27 PM 35.8267 -84.1592 353° North 447 514 32,300 -1,400 Descending Atlanta Center
Fri 02:26:27 PM 35.9497 -84.1772 353° North 447 514 32,000 -400 Descending Atlanta Center
Fri 02:27:27 PM 36.0769 -84.1956 353° North 447 514 31,500 -803 Descending Atlanta Center
Fri 02:28:49 PM 36.2494 -84.2175 354° North 442 509 30,100 -1,250 Descending Indianapolis Center
Fri 02:29:51 PM 36.3686 -84.2353 353° North 435 501 28,500 -1,790 Descending Indianapolis Center
Fri 02:30:53 PM 36.4842 -84.2528 353° North 423 487 26,400 -2,098 Descending Indianapolis Center
Fri 02:31:54 PM 36.6133 -84.2708 354° North 414 476 24,200 -1,951 Descending Indianapolis Center
Fri 02:32:56 PM 36.7225 -84.2875 353° North 398 458 22,400 -1,790 Descending Indianapolis Center
Fri 02:33:58 PM 36.8292 -84.3028 353° North 387 445 20,500 -1,645 Descending Indianapolis Center
Fri 02:35:00 PM 36.9336 -84.3178 353° North 379 436 19,000 -1,463 Descending Indianapolis Center
Fri 02:36:01 PM 37.0386 -84.3339 353° North 377 434 17,500 -1,512 Descending Indianapolis Center
Fri 02:37:03 PM 37.1425 -84.3497 353° North 376 433 15,900 -1,645 Descending Indianapolis Center
Fri 02:38:05 PM 37.2628 -84.3667 354° North 373 429 14,100 -1,597 Descending Indianapolis Center
Fri 02:39:07 PM 37.3619 -84.3819 353° North 362 417 12,600 -1,403 Descending Indianapolis Center
Fri 02:40:09 PM 37.4608 -84.3964 353° North 357 411 11,200 -1,161 Descending Indianapolis Center
Fri 02:41:11 PM 37.5517 -84.4100 353° North 336 387 10,200 -1,317 Descending Indianapolis Center
Fri 02:42:12 PM 37.6369 -84.4233 353° North 315 362 8,500 -1,672 Descending Indianapolis Center
Fri 02:44:00 PM 37.8458 -84.4462 355° North  Level FlightAware Approximate
Fri 02:51:00 PM 38.0333 -84.6000 302° West  Level FlightAware Approximate
Fri 02:52:00 PM 38.0368 -84.6086 302° West  Level Estimated
Fri 02:53:00 PM 38.0368 -84.6086 302° West  Level Estimated
Fri 02:54:00 PM 38.0368 -84.6086 302° West  Level Estimated
Fri 02:55:00 PM 38.0368 -84.6086 226° Southwest  Level Estimated
Fri 02:56:00 PM 38.0368 -84.6086 226° Southwest  Level Estimated

Login

Don't have an account? Register now (free) for customized features, flight alerts, and more!